createdAt,value
2018-10-03T02:41:48.801Z,99.90
2018-10-03T02:44:17.049Z,99.90
2018-10-03T02:46:45.316Z,99.90
2018-10-03T02:49:13.613Z,99.90
2018-10-03T02:51:41.906Z,99.90
2018-10-03T02:54:10.162Z,99.90
2018-10-03T02:56:38.446Z,99.90
2018-10-03T02:59:06.808Z,99.90
2018-10-03T03:01:35.061Z,99.90
2018-10-03T03:04:03.324Z,99.90
2018-10-03T03:06:31.552Z,99.90
2018-10-03T03:08:59.857Z,99.90
2018-10-03T03:11:28.117Z,99.90
2018-10-03T03:13:56.409Z,99.90
2018-10-03T03:16:24.717Z,99.90
2018-10-03T03:18:52.993Z,99.90
2018-10-03T03:21:21.263Z,99.90
2018-10-03T03:23:49.532Z,99.90
2018-10-03T03:26:17.813Z,99.90
2018-10-03T03:28:46.094Z,99.90
2018-10-03T03:31:14.362Z,99.90
2018-10-03T03:33:42.632Z,99.90
2018-10-03T03:36:10.904Z,99.90
2018-10-03T03:38:39.185Z,99.90
2018-10-03T03:41:07.526Z,99.90
2018-10-03T03:43:35.803Z,99.90
2018-10-03T03:46:04.056Z,99.90
2018-10-03T03:48:32.336Z,99.90
2018-10-03T03:51:00.627Z,99.90
2018-10-03T03:53:28.896Z,99.90
2018-10-03T03:55:57.187Z,99.90
2018-10-03T03:58:25.469Z,99.90
2018-10-03T04:00:53.748Z,99.90
2018-10-03T04:03:22.045Z,99.90
2018-10-03T04:05:50.327Z,99.90
2018-10-03T04:08:18.624Z,99.90
2018-10-03T04:10:47.729Z,99.90
2018-10-03T04:13:16.027Z,99.90
2018-10-03T04:15:44.409Z,99.90
2018-10-03T04:18:12.696Z,99.90
2018-10-03T04:20:40.988Z,99.90
2018-10-03T04:23:09.281Z,99.90
2018-10-03T04:25:37.553Z,99.90
2018-10-03T04:28:05.864Z,99.90
2018-10-03T04:30:34.137Z,99.90
2018-10-03T04:33:02.421Z,99.90
2018-10-03T04:35:30.705Z,99.90
2018-10-03T04:37:58.972Z,99.90
2018-10-03T04:40:27.228Z,99.90
2018-10-03T04:42:55.524Z,99.90
2018-10-03T04:45:23.802Z,99.90
2018-10-03T04:47:52.064Z,99.90
2018-10-03T04:50:20.349Z,99.90
2018-10-03T04:52:48.666Z,99.90
2018-10-03T04:55:16.944Z,99.90
2018-10-03T04:57:45.192Z,99.90
2018-10-03T05:00:13.473Z,99.90
2018-10-03T05:02:41.760Z,99.90
2018-10-03T05:05:10.049Z,99.90
2018-10-03T05:07:38.290Z,99.90
2018-10-03T05:10:06.651Z,99.90
2018-10-03T05:12:34.948Z,99.90
2018-10-03T05:15:03.253Z,99.90
2018-10-03T05:17:31.556Z,99.90
2018-10-03T05:19:59.862Z,99.90
2018-10-03T05:22:28.177Z,99.90
2018-10-03T05:24:56.446Z,99.90
2018-10-03T05:27:24.698Z,99.90
2018-10-03T05:29:52.967Z,99.90
2018-10-03T05:32:21.230Z,99.90
2018-10-03T05:34:49.509Z,99.90
2018-10-03T05:37:17.775Z,99.90
2018-10-03T05:39:46.118Z,99.90
2018-10-03T05:42:14.378Z,99.90
2018-10-03T05:44:42.630Z,99.90
2018-10-03T05:47:10.892Z,99.90
2018-10-03T05:49:39.188Z,99.90
2018-10-03T05:52:07.594Z,99.90
2018-10-03T05:54:35.913Z,99.90
2018-10-03T05:57:04.150Z,99.90
2018-10-03T05:59:32.441Z,99.90
2018-10-03T06:02:00.735Z,99.90
2018-10-03T06:04:29.040Z,99.90
2018-10-03T06:06:57.349Z,99.90
2018-10-03T06:09:25.638Z,99.90
2018-10-03T06:11:53.930Z,99.90
2018-10-03T06:14:22.221Z,99.90
2018-10-03T06:16:50.487Z,99.90
2018-10-03T06:19:18.749Z,99.90
2018-10-03T06:21:47.049Z,99.90
2018-10-03T06:24:15.357Z,99.90
2018-10-03T06:26:43.612Z,99.90
2018-10-03T06:29:11.921Z,99.90
2018-10-03T06:31:40.198Z,99.90
2018-10-03T06:34:08.536Z,99.90
2018-10-03T06:36:36.824Z,99.90
2018-10-03T06:39:07.313Z,99.90
2018-10-03T06:41:35.922Z,99.90
2018-10-03T06:44:04.191Z,99.90
2018-10-03T06:46:32.516Z,99.90
2018-10-03T06:49:00.815Z,99.90
2018-10-03T06:51:29.085Z,99.90
2018-10-03T06:53:57.609Z,99.90
2018-10-03T06:56:25.921Z,99.90
2018-10-03T06:58:54.260Z,99.90
2018-10-03T07:01:22.610Z,99.90
2018-10-03T07:03:50.880Z,99.90
2018-10-03T07:06:19.182Z,99.90
2018-10-03T07:08:47.474Z,99.90
2018-10-03T07:11:15.737Z,99.90
2018-10-03T07:13:44.025Z,99.90
2018-10-03T07:16:12.389Z,99.90
2018-10-03T07:18:40.657Z,99.90
2018-10-03T07:21:08.929Z,99.90
2018-10-03T07:23:37.416Z,99.90
2018-10-03T07:26:05.730Z,99.90
2018-10-03T07:28:34.060Z,99.90
2018-10-03T07:31:02.344Z,99.90
2018-10-03T07:33:30.641Z,99.90
2018-10-03T07:35:59.027Z,99.90
2018-10-03T07:38:27.305Z,99.90
2018-10-03T07:40:56.305Z,99.90
2018-10-03T07:43:24.798Z,99.90
2018-10-03T07:45:53.289Z,99.90
2018-10-03T07:48:21.609Z,99.90
2018-10-03T07:50:49.957Z,99.90
2018-10-03T07:53:18.234Z,99.90
2018-10-03T07:55:46.529Z,99.90
2018-10-03T07:58:14.813Z,99.90
2018-10-03T08:00:43.073Z,99.90
2018-10-03T08:03:13.108Z,99.90
2018-10-03T08:05:41.420Z,99.90
2018-10-03T08:08:09.825Z,99.90
2018-10-03T08:10:38.988Z,99.90
2018-10-03T08:13:07.397Z,99.90
2018-10-03T08:15:35.705Z,99.90
2018-10-03T08:18:03.973Z,99.90
2018-10-03T08:20:32.267Z,99.90
2018-10-03T08:23:00.645Z,99.90
2018-10-03T08:25:28.929Z,99.90
2018-10-03T08:27:57.173Z,99.90
2018-10-03T08:30:25.612Z,99.90
2018-10-03T08:32:54.020Z,99.90
2018-10-03T08:35:22.159Z,99.90
2018-10-03T08:37:50.424Z,99.90
2018-10-03T08:40:18.684Z,99.90
2018-10-03T08:42:47.005Z,99.90
2018-10-03T08:45:15.300Z,99.90
2018-10-03T08:47:43.596Z,99.90
2018-10-03T08:50:12.758Z,99.90
2018-10-03T08:52:41.018Z,99.90
2018-10-03T08:55:09.428Z,99.90
2018-10-03T08:57:38.872Z,99.90
2018-10-03T09:00:07.902Z,99.90
2018-10-03T09:02:36.165Z,99.90
2018-10-03T09:05:04.556Z,99.90
2018-10-03T09:07:32.817Z,99.90
2018-10-03T09:10:01.089Z,99.90
2018-10-03T09:12:29.341Z,99.90
2018-10-03T09:14:57.669Z,99.90
2018-10-03T09:17:25.963Z,99.90
2018-10-03T09:19:54.228Z,99.90
2018-10-03T09:22:22.696Z,99.90
2018-10-03T09:24:51.175Z,99.90
2018-10-03T09:27:19.413Z,99.90
2018-10-03T09:29:47.736Z,99.90
2018-10-03T09:32:15.996Z,99.90
2018-10-03T09:34:44.265Z,99.90
2018-10-03T09:37:12.544Z,99.90
2018-10-03T09:39:40.892Z,99.90
2018-10-03T09:42:09.241Z,99.90
2018-10-03T09:44:37.537Z,99.90
2018-10-03T09:47:06.113Z,99.90
2018-10-03T09:49:34.393Z,99.90
2018-10-03T09:52:02.644Z,99.90
2018-10-03T09:54:30.916Z,99.90
2018-10-03T09:56:59.207Z,99.90
2018-10-03T09:59:27.465Z,99.90
2018-10-03T10:01:55.765Z,99.90
2018-10-03T10:04:24.117Z,99.90
2018-10-03T10:06:52.378Z,99.90
2018-10-03T10:09:20.669Z,99.90
2018-10-03T10:11:49.150Z,99.90
2018-10-03T10:14:17.305Z,99.90
2018-10-03T10:16:45.617Z,99.90
2018-10-03T10:19:13.889Z,99.90
2018-10-03T10:21:42.172Z,99.90
2018-10-03T10:24:10.552Z,99.90
2018-10-03T10:26:38.820Z,99.90
2018-10-03T10:29:07.135Z,99.90
2018-10-03T10:31:35.520Z,99.90
2018-10-03T10:34:03.847Z,99.90
2018-10-03T10:36:32.129Z,99.90
2018-10-03T10:39:00.413Z,99.90
2018-10-03T10:41:28.956Z,99.90
2018-10-03T10:43:57.097Z,99.90
2018-10-03T10:46:25.376Z,99.90
2018-10-03T10:48:53.721Z,99.90
2018-10-03T10:51:22.037Z,99.90
2018-10-03T10:53:50.304Z,99.90
2018-10-03T10:56:18.581Z,99.90
2018-10-03T10:58:46.860Z,99.90
2018-10-03T11:01:15.116Z,99.90
2018-10-03T11:03:43.418Z,99.90
2018-10-03T11:06:11.758Z,99.90
2018-10-03T11:08:40.125Z,99.90
2018-10-03T11:11:08.528Z,99.90
2018-10-03T11:13:36.877Z,99.90
2018-10-03T11:16:05.168Z,99.90
2018-10-03T11:18:33.429Z,99.90
2018-10-03T11:21:01.718Z,99.90
2018-10-03T11:23:30.033Z,99.90
2018-10-03T11:25:58.490Z,99.80
2018-10-03T11:28:26.825Z,98.60
2018-10-03T11:30:55.089Z,98.60
2018-10-03T11:33:23.416Z,98.70
2018-10-03T11:35:51.674Z,97.10
2018-10-03T11:38:20.016Z,96.90
2018-10-03T11:40:48.248Z,98.60
2018-10-03T11:43:16.500Z,97.90
2018-10-03T11:45:44.763Z,96.00
2018-10-03T11:48:13.046Z,94.00
2018-10-03T11:50:41.381Z,94.90
2018-10-03T11:53:09.619Z,94.30
2018-10-03T11:55:37.896Z,95.20
2018-10-03T11:58:06.149Z,94.30
2018-10-03T12:00:34.456Z,91.90
2018-10-03T12:03:02.877Z,90.30
2018-10-03T12:05:31.134Z,87.90
2018-10-03T12:07:59.420Z,87.00
2018-10-03T12:10:27.692Z,88.00
2018-10-03T12:12:55.998Z,86.20
2018-10-03T12:15:24.277Z,87.50
2018-10-03T12:17:52.805Z,89.70
2018-10-03T12:20:21.061Z,87.10
2018-10-03T12:22:49.442Z,83.10
2018-10-03T12:25:17.744Z,83.40
2018-10-03T12:27:45.997Z,83.20
2018-10-03T12:30:14.278Z,76.60
2018-10-03T12:32:42.597Z,74.70
2018-10-03T12:35:10.907Z,78.30
2018-10-03T12:37:39.201Z,75.80
2018-10-03T12:40:07.688Z,75.10
2018-10-03T12:42:35.976Z,78.80
2018-10-03T12:45:04.352Z,74.70
2018-10-03T12:47:32.584Z,73.20
2018-10-03T12:50:00.933Z,72.70
2018-10-03T12:52:29.213Z,70.20
2018-10-03T12:54:57.468Z,66.80
2018-10-03T12:57:25.753Z,63.70
2018-10-03T12:59:54.041Z,62.70
2018-10-03T13:02:22.293Z,62.20
2018-10-03T13:04:50.661Z,63.00
2018-10-03T13:07:18.905Z,61.80
2018-10-03T13:09:47.161Z,62.00
2018-10-03T13:12:15.614Z,60.40
2018-10-03T13:14:43.893Z,63.00
2018-10-03T13:17:12.168Z,59.20
2018-10-03T13:19:40.520Z,57.70
2018-10-03T13:22:08.945Z,55.40
2018-10-03T13:24:37.241Z,55.70
2018-10-03T13:27:05.520Z,57.70
2018-10-03T13:29:33.808Z,55.50
2018-10-03T13:32:02.109Z,54.40
2018-10-03T13:34:30.497Z,53.30
2018-10-03T13:36:58.768Z,54.00
2018-10-03T13:39:27.064Z,54.30
2018-10-03T13:41:55.326Z,55.10
2018-10-03T13:44:23.605Z,53.50
2018-10-03T13:46:51.943Z,52.00
2018-10-03T13:49:20.361Z,49.10
2018-10-03T13:51:48.661Z,47.40
2018-10-03T13:54:16.921Z,48.10
2018-10-03T13:56:45.295Z,49.10
2018-10-03T13:59:13.669Z,49.10
2018-10-03T14:01:41.980Z,50.80
2018-10-03T14:04:10.392Z,53.10
2018-10-03T14:06:38.773Z,54.70
2018-10-03T14:09:08.842Z,55.90
2018-10-03T14:11:37.109Z,56.70
2018-10-03T14:14:05.539Z,57.70
2018-10-03T14:16:33.878Z,58.10
2018-10-03T14:19:02.153Z,57.90
2018-10-03T14:21:30.436Z,60.00
2018-10-03T14:23:58.892Z,58.80
2018-10-03T14:26:27.155Z,59.60
2018-10-03T14:28:55.480Z,57.90
2018-10-03T14:31:23.785Z,57.90
2018-10-03T14:33:58.409Z,56.30
2018-10-03T14:36:26.826Z,54.10
2018-10-03T14:38:55.368Z,53.50
2018-10-03T14:41:23.694Z,53.80
2018-10-03T14:43:52.121Z,53.30
2018-10-03T14:46:20.717Z,52.70
2018-10-03T14:48:48.982Z,52.30
2018-10-03T14:51:17.244Z,53.60
2018-10-03T14:53:45.872Z,52.20
2018-10-03T14:56:14.159Z,52.50
2018-10-03T14:58:42.595Z,54.30
2018-10-03T15:01:10.875Z,53.50
2018-10-03T15:03:39.242Z,55.40
2018-10-03T15:06:07.681Z,57.00
2018-10-03T15:08:36.041Z,56.90
2018-10-03T15:11:04.330Z,57.30
2018-10-03T15:13:32.613Z,58.00
2018-10-03T15:16:00.924Z,58.20
2018-10-03T15:18:29.378Z,56.40
2018-10-03T15:20:58.041Z,56.70
2018-10-03T15:23:26.470Z,55.60
2018-10-03T15:25:54.956Z,56.10
2018-10-03T15:28:23.267Z,57.80
2018-10-03T15:30:51.999Z,57.30
2018-10-03T15:33:20.441Z,57.30
2018-10-03T15:35:48.740Z,56.40
2018-10-03T15:38:17.765Z,59.40
2018-10-03T15:40:46.204Z,57.10
2018-10-03T15:43:14.715Z,57.30
2018-10-03T15:45:42.978Z,57.40
2018-10-03T15:48:11.475Z,57.80
2018-10-03T15:50:39.733Z,57.30
2018-10-03T15:53:08.164Z,57.70
2018-10-03T15:55:36.584Z,56.90
2018-10-03T15:58:04.898Z,58.70
2018-10-03T16:00:33.365Z,57.30
2018-10-03T16:03:01.677Z,57.80
2018-10-03T16:05:30.000Z,57.40
2018-10-03T16:07:58.323Z,59.00
2018-10-03T16:10:26.593Z,60.20
2018-10-03T16:12:54.860Z,60.50
2018-10-03T16:15:23.162Z,63.20
2018-10-03T16:17:51.916Z,62.70
2018-10-03T16:20:20.200Z,63.10
2018-10-03T16:22:48.561Z,58.80
2018-10-03T16:25:16.904Z,59.40
2018-10-03T16:27:45.284Z,60.30
2018-10-03T16:30:13.676Z,61.20
2018-10-03T16:32:42.976Z,61.60
2018-10-03T16:35:12.273Z,62.40
2018-10-03T16:37:40.556Z,61.40
2018-10-03T16:40:09.142Z,63.50
2018-10-03T16:42:37.412Z,63.70
2018-10-03T16:45:06.017Z,66.90
2018-10-03T16:47:34.249Z,70.80
2018-10-03T16:50:02.729Z,70.60
2018-10-03T16:52:30.938Z,72.40
2018-10-03T16:54:59.244Z,67.90
2018-10-03T16:57:27.730Z,68.50
2018-10-03T16:59:56.004Z,68.80
2018-10-03T17:02:24.256Z,71.20
2018-10-03T17:05:01.475Z,71.80
2018-10-03T17:07:29.778Z,71.70
2018-10-03T17:09:58.083Z,72.90
2018-10-03T17:12:26.419Z,74.20
2018-10-03T17:14:54.668Z,75.90
2018-10-03T17:17:22.960Z,77.50
2018-10-03T17:19:51.229Z,79.10
2018-10-03T17:22:19.496Z,80.10
2018-10-03T17:24:47.783Z,81.50
2018-10-03T17:27:16.068Z,81.60
2018-10-03T17:29:57.928Z,84.50
2018-10-03T17:32:41.241Z,87.90
2018-10-03T17:35:09.671Z,88.60
2018-10-03T17:37:37.935Z,88.70
2018-10-03T17:40:06.740Z,89.80
2018-10-03T17:42:35.112Z,88.80
2018-10-03T17:45:03.369Z,90.40
2018-10-03T17:47:31.672Z,87.90
2018-10-03T17:50:00.236Z,91.90
2018-10-03T17:52:28.547Z,92.20
2018-10-03T17:54:56.866Z,92.80
2018-10-03T17:57:25.343Z,93.20
2018-10-03T17:59:53.830Z,93.90
2018-10-03T18:02:22.129Z,94.90
2018-10-03T18:04:50.535Z,95.20
2018-10-03T18:07:18.826Z,96.10
2018-10-03T18:09:47.101Z,96.30
2018-10-03T18:12:15.521Z,96.80
2018-10-03T18:14:43.791Z,98.30
2018-10-03T18:17:12.085Z,98.90
2018-10-03T18:19:40.433Z,99.70
2018-10-03T18:22:08.714Z,99.90
2018-10-03T18:24:36.990Z,99.90
2018-10-03T18:27:05.330Z,99.90
2018-10-03T18:29:33.611Z,99.90
2018-10-03T18:32:01.929Z,99.90
2018-10-03T18:34:30.257Z,99.90
2018-10-03T18:36:58.590Z,99.90
2018-10-03T18:39:27.000Z,99.90
2018-10-03T18:41:55.346Z,99.90
2018-10-03T18:44:23.774Z,99.90
2018-10-03T18:46:52.182Z,99.90
2018-10-03T18:49:20.394Z,99.90
2018-10-03T18:51:48.749Z,99.90
2018-10-03T18:54:17.154Z,99.90
2018-10-03T18:56:45.432Z,99.90
2018-10-03T18:59:13.745Z,99.90
2018-10-03T19:01:42.079Z,99.90
2018-10-03T19:04:10.414Z,99.90
2018-10-03T19:06:38.737Z,99.90
2018-10-03T19:09:08.781Z,99.90
2018-10-03T19:11:37.734Z,99.90
2018-10-03T19:14:06.278Z,99.90
2018-10-03T19:16:34.576Z,99.90
2018-10-03T19:19:03.193Z,99.90
2018-10-03T19:21:31.494Z,99.90
2018-10-03T19:23:59.861Z,99.90
2018-10-03T19:26:28.240Z,99.90
2018-10-03T19:28:56.495Z,99.90
2018-10-03T19:31:24.790Z,99.90
2018-10-03T19:33:53.089Z,99.90
2018-10-03T19:36:21.393Z,99.90
2018-10-03T19:38:49.698Z,99.90
2018-10-03T19:41:17.990Z,99.90
2018-10-03T19:43:46.315Z,99.90
2018-10-03T19:46:14.633Z,99.90
2018-10-03T19:48:42.900Z,99.90
2018-10-03T19:54:01.800Z,99.90
2018-10-03T19:56:30.096Z,99.90
2018-10-03T19:58:58.462Z,99.90
2018-10-03T20:01:26.756Z,99.90
2018-10-03T20:03:55.090Z,99.90
2018-10-03T20:06:23.347Z,99.90
2018-10-03T20:08:51.657Z,99.90
2018-10-03T20:11:20.038Z,99.90
2018-10-03T20:13:48.391Z,99.90
2018-10-03T20:16:16.730Z,99.90
2018-10-03T20:18:45.025Z,99.90
2018-10-03T20:21:13.401Z,99.90
2018-10-03T20:23:41.652Z,99.90
2018-10-03T20:26:10.302Z,99.90
2018-10-03T20:28:38.553Z,99.90
2018-10-03T20:31:06.961Z,99.90
2018-10-03T20:33:35.276Z,99.90
2018-10-03T20:36:03.821Z,99.90
2018-10-03T20:38:32.098Z,99.90
2018-10-03T20:41:00.435Z,99.90
2018-10-03T20:43:29.085Z,99.90
2018-10-03T20:45:57.438Z,99.90
2018-10-03T20:48:25.835Z,99.90
2018-10-03T20:50:54.004Z,99.90
2018-10-03T20:53:22.309Z,99.90
2018-10-03T20:55:50.649Z,99.90
2018-10-03T20:58:18.958Z,99.90
2018-10-03T21:00:47.223Z,99.90
2018-10-03T21:03:15.500Z,99.90
2018-10-03T21:05:43.939Z,99.90
2018-10-03T21:08:12.282Z,99.90
2018-10-03T21:10:40.560Z,99.90
2018-10-03T21:13:08.853Z,99.90
2018-10-03T21:15:37.176Z,99.90
2018-10-03T21:18:05.538Z,99.90
2018-10-03T21:20:33.853Z,99.90
2018-10-03T21:23:02.120Z,99.90
2018-10-03T21:25:30.429Z,99.90
2018-10-03T21:27:58.708Z,99.90
2018-10-03T21:30:27.044Z,99.90
2018-10-03T21:32:55.321Z,99.90
2018-10-03T21:35:23.625Z,99.90
2018-10-03T21:37:51.909Z,99.90
2018-10-03T21:40:20.191Z,99.90
2018-10-03T21:42:48.517Z,99.90
2018-10-03T21:45:16.820Z,99.90
2018-10-03T21:47:45.124Z,99.90
2018-10-03T21:50:13.412Z,99.90
2018-10-03T21:52:41.765Z,99.90
2018-10-03T21:55:10.245Z,99.90
2018-10-03T21:57:38.501Z,99.90
2018-10-03T22:00:07.834Z,99.90
2018-10-03T22:02:36.286Z,99.90
2018-10-03T22:05:06.541Z,99.90
2018-10-03T22:07:34.814Z,99.90
2018-10-03T22:10:03.194Z,99.90
2018-10-03T22:12:32.604Z,99.90
2018-10-03T22:15:00.880Z,99.90
2018-10-03T22:17:29.173Z,99.90
2018-10-03T22:19:57.594Z,99.90
2018-10-03T22:22:25.873Z,99.90
2018-10-03T22:24:54.137Z,99.90
2018-10-03T22:27:22.601Z,99.90
2018-10-03T22:29:50.895Z,99.90
2018-10-03T22:32:19.176Z,99.90
2018-10-03T22:34:47.538Z,99.90
2018-10-03T22:37:15.822Z,99.90
2018-10-03T22:39:44.193Z,99.90
2018-10-03T22:42:12.463Z,99.90
2018-10-03T22:44:40.760Z,99.90
2018-10-03T22:47:09.072Z,99.90
2018-10-03T22:49:37.328Z,99.90
2018-10-03T22:52:05.701Z,99.90
2018-10-03T22:54:34.029Z,99.90
2018-10-03T22:57:02.277Z,99.90
2018-10-03T22:59:30.536Z,99.90
2018-10-03T23:01:58.919Z,99.90
2018-10-03T23:04:28.348Z,99.90
2018-10-03T23:06:56.776Z,99.90
2018-10-03T23:09:25.112Z,99.90
2018-10-03T23:11:53.468Z,99.90
2018-10-03T23:14:21.716Z,99.90
2018-10-03T23:16:50.038Z,99.90
2018-10-03T23:19:18.284Z,99.90
2018-10-03T23:21:46.567Z,99.90
2018-10-03T23:24:14.860Z,99.90
2018-10-03T23:26:43.136Z,99.90
2018-10-03T23:29:11.440Z,99.90
2018-10-03T23:31:39.708Z,99.90
2018-10-03T23:34:08.297Z,99.90
2018-10-03T23:36:36.580Z,99.90
2018-10-03T23:39:07.577Z,99.90
2018-10-03T23:41:35.832Z,99.90
2018-10-03T23:44:04.077Z,99.90
2018-10-03T23:46:32.387Z,99.90
2018-10-03T23:49:00.669Z,99.90
2018-10-03T23:51:28.948Z,99.90
2018-10-03T23:53:57.193Z,99.90
2018-10-03T23:56:25.481Z,99.90
2018-10-03T23:58:53.744Z,99.90
